Karina — V2HS7 — position and weather

sailwx.info

Track history (hours):
 
Tides and Currents Weather Stations Pressure Air Temp Water Temp Dewpoint Dewpoint Depression Visibility Wind Speed Wind Dir Waves Ship Positions

Karina

Last reported at 2017-Nov-24 09:31 UTC. Time now 2017-Nov-24 09:37 UTC.
Position N 36°40' E 014°26'.

Length 103 m; draft 5.3 m.

Type: Cargo ship. MMSI: 304047000.

Date/timePositionNaut miles runAvg speedWind from/ knotsBaromVisibWave heightAir tempDewpointWater temp
2017-Nov-24 09:31N 36°40' E 014°26'611.6
2017-Nov-24 09:01N 36°43' E 014°19'611.8
2017-Nov-24 08:30N 36°46' E 014°13'611.7
2017-Nov-24 08:00N 36°48' E 014°06'611.6
2017-Nov-24 07:30N 36°51' E 013°60'611.8
2017-Nov-24 07:00N 36°53' E 013°53'611.7
2017-Nov-24 06:30N 36°56' E 013°47'611.2
2017-Nov-24 06:00N 36°58' E 013°40'  
2017-Nov-19 15:42N 36°35' W 009°19'2 9.6
2017-Nov-19 15:27N 36°37' W 009°21'4110.2
2017-Nov-19 11:29N 37°14' W 009°41'510.5
2017-Nov-19 11:00N 37°19' W 009°43'710.8
2017-Nov-19 10:19N 37°26' W 009°44'310.9
2017-Nov-19 10:00N 37°30' W 009°46'510.8
2017-Nov-19 09:30N 37°35' W 009°47'510.8
2017-Nov-19 09:00N 37°40' W 009°49'610.9
2017-Nov-19 08:30N 37°45' W 009°50'511.0
2017-Nov-19 08:00N 37°51' W 009°52'510.9
2017-Nov-19 07:30N 37°56' W 009°54'510.9
2017-Nov-19 07:01N 38°01' W 009°55'611.1
2017-Nov-19 06:30N 38°07' W 009°57'511.0
2017-Nov-19 06:00N 38°12' W 009°59'511.0
2017-Nov-19 05:31N 38°17' W 009°60'510.8
2017-Nov-19 05:00N 38°23' W 010°01'610.8
2017-Nov-19 04:30N 38°28' W 010°03'510.6
2017-Nov-19 04:00N 38°33' W 010°05'510.7
2017-Nov-19 03:30N 38°38' W 010°06'510.5
2017-Nov-19 03:00N 38°44' W 010°07'510.7
2017-Nov-19 02:30N 38°49' W 010°06'510.5
2017-Nov-19 02:00N 38°54' W 010°05'510.5
2017-Nov-19 01:30N 38°59' W 010°03'510.1
2017-Nov-19 01:01N 39°04' W 010°01'510.5
2017-Nov-19 00:31N 39°09' W 009°58'510.1
2017-Nov-19 00:00N 39°13' W 009°56'510.5
2017-Nov-18 23:30N 39°18' W 009°53'611.3
2017-Nov-18 23:00N 39°23' W 009°50'611.4
2017-Nov-18 22:31N 39°28' W 009°47'510.9
2017-Nov-18 22:00N 39°33' W 009°43'610.8
2017-Nov-18 21:29N 39°37' W 009°37'1810.6
2017-Nov-18 19:45N 39°49' W 009°20'310.9
2017-Nov-18 19:27N 39°51' W 009°17'511.0
2017-Nov-18 19:00N 39°55' W 009°12'  
2017-Nov-15 21:06N 40°03' W 009°04'110.6
2017-Nov-15 21:00N 40°03' W 009°05'2 3.6
2017-Nov-15 20:30N 40°02' W 009°07'510.8
2017-Nov-15 20:00N 40°05' W 009°01'510.3
2017-Nov-15 19:30N 40°10' W 008°59'  
Track history (hours):
 
Tides and Currents Weather Stations Pressure Air Temp Water Temp Dewpoint Dewpoint Depression Visibility Wind Speed Wind Dir Waves Ship Positions

Karina

Last reported at 2017-Nov-24 09:31 UTC. Time now 2017-Nov-24 09:37 UTC.
Position N 36°40' E 014°26'.

Length 103 m; draft 5.3 m.

Type: Cargo ship. MMSI: 304047000.

Date/timePositionNaut miles runAvg speedWind from/ knotsBaromVisibWave heightAir tempDewpointWater temp
2017-Nov-24 09:31N 36°40' E 014°26'611.6
2017-Nov-24 09:01N 36°43' E 014°19'611.8
2017-Nov-24 08:30N 36°46' E 014°13'611.7
2017-Nov-24 08:00N 36°48' E 014°06'611.6
2017-Nov-24 07:30N 36°51' E 013°60'611.8
2017-Nov-24 07:00N 36°53' E 013°53'611.7
2017-Nov-24 06:30N 36°56' E 013°47'611.2
2017-Nov-24 06:00N 36°58' E 013°40'  
2017-Nov-19 15:42N 36°35' W 009°19'2 9.6
2017-Nov-19 15:27N 36°37' W 009°21'4110.2
2017-Nov-19 11:29N 37°14' W 009°41'510.5
2017-Nov-19 11:00N 37°19' W 009°43'710.8
2017-Nov-19 10:19N 37°26' W 009°44'310.9
2017-Nov-19 10:00N 37°30' W 009°46'510.8
2017-Nov-19 09:30N 37°35' W 009°47'510.8
2017-Nov-19 09:00N 37°40' W 009°49'610.9
2017-Nov-19 08:30N 37°45' W 009°50'511.0
2017-Nov-19 08:00N 37°51' W 009°52'510.9
2017-Nov-19 07:30N 37°56' W 009°54'510.9
2017-Nov-19 07:01N 38°01' W 009°55'611.1
2017-Nov-19 06:30N 38°07' W 009°57'511.0
2017-Nov-19 06:00N 38°12' W 009°59'511.0
2017-Nov-19 05:31N 38°17' W 009°60'510.8
2017-Nov-19 05:00N 38°23' W 010°01'610.8
2017-Nov-19 04:30N 38°28' W 010°03'510.6
2017-Nov-19 04:00N 38°33' W 010°05'510.7
2017-Nov-19 03:30N 38°38' W 010°06'510.5
2017-Nov-19 03:00N 38°44' W 010°07'510.7
2017-Nov-19 02:30N 38°49' W 010°06'510.5
2017-Nov-19 02:00N 38°54' W 010°05'510.5
2017-Nov-19 01:30N 38°59' W 010°03'510.1
2017-Nov-19 01:01N 39°04' W 010°01'510.5
2017-Nov-19 00:31N 39°09' W 009°58'510.1
2017-Nov-19 00:00N 39°13' W 009°56'510.5
2017-Nov-18 23:30N 39°18' W 009°53'611.3
2017-Nov-18 23:00N 39°23' W 009°50'611.4
2017-Nov-18 22:31N 39°28' W 009°47'510.9
2017-Nov-18 22:00N 39°33' W 009°43'610.8
2017-Nov-18 21:29N 39°37' W 009°37'1810.6
2017-Nov-18 19:45N 39°49' W 009°20'310.9
2017-Nov-18 19:27N 39°51' W 009°17'511.0
2017-Nov-18 19:00N 39°55' W 009°12'  
2017-Nov-15 21:06N 40°03' W 009°04'110.6
2017-Nov-15 21:00N 40°03' W 009°05'2 3.6
2017-Nov-15 20:30N 40°02' W 009°07'510.8
2017-Nov-15 20:00N 40°05' W 009°01'510.3
2017-Nov-15 19:30N 40°10' W 008°59'  

Dump ship's entire track history